Time;durP1;ratioP1;P1;durP2;ratioP2;P2;SDS_P1;SDS_P2;PMS_P1;PMS_P2;Temp;Humidity;BMP_temperature;BMP_pressure;BME280_temperature;BME280_humidity;BME280_pressure;Samples;Min_cycle;Max_cycle;Signal;HPM_P1;HPM_P2
2022/02/05 00:02:16;;;;;;;15.73;8.48;;;;;;;0.04;50.42;98614.94;4970834;28;20081;-80
2022/02/05 00:04:46;;;;;;;14.80;7.68;;;;;;;0.02;50.56;98617.66;4954639;29;20047;-81
2022/02/05 00:07:13;;;;;;;15.38;7.90;;;;;;;-0.01;50.55;98612.56;4954413;29;20047;-82
2022/02/05 00:14:59;;;;;;;11.88;6.95;;;;;;;-0.01;51.24;98623.06;4955838;28;20062;-83
2022/02/05 00:33:09;;;;;;;16.02;8.18;;;;;;;-0.04;51.13;98631.09;4971430;28;20047;-80
2022/02/05 00:39:56;;;;;;;16.67;7.85;;;;;;;-0.06;51.29;98598.78;4952565;29;20117;-80
2022/02/05 00:42:29;;;;;;;15.65;7.15;;;;;;;0.03;51.51;98619.34;4966056;28;20051;-82
2022/02/05 00:44:55;;;;;;;17.52;8.15;;;;;;;0.01;51.28;98610.72;4979158;28;20054;-82
2022/02/05 00:47:22;;;;;;;16.40;8.95;;;;;;;0.04;51.11;98610.56;4952682;29;20515;-82
2022/02/05 00:49:53;;;;;;;16.00;8.15;;;;;;;0.05;51.18;98614.88;4951153;29;20047;-83
2022/02/05 00:52:20;;;;;;;13.95;8.48;;;;;;;0.02;51.48;98607.16;4957302;29;20426;-83
2022/02/05 00:54:50;;;;;;;18.13;8.50;;;;;;;0.08;51.52;98608.63;4957851;29;20043;-84
2022/02/05 00:59:54;;;;;;;15.95;8.18;;;;;;;0.04;51.53;98610.56;4956431;29;20109;-81
2022/02/05 01:02:20;;;;;;;14.60;8.07;;;;;;;0.02;51.76;98611.56;4960568;28;20039;-83
2022/02/05 01:04:46;;;;;;;16.95;8.65;;;;;;;0.03;51.35;98614.09;4974250;28;20384;-82
2022/02/05 01:07:12;;;;;;;12.55;7.90;;;;;;;0.03;51.86;98608.00;4956373;29;20054;-81
2022/02/05 01:09:39;;;;;;;18.77;8.30;;;;;;;0.02;51.27;98606.31;4956869;28;20047;-82
2022/02/05 01:12:06;;;;;;;16.40;9.00;;;;;;;-0.02;51.50;98610.84;4956339;29;20039;-81
2022/02/05 01:14:42;;;;;;;14.23;7.72;;;;;;;-0.02;51.92;98601.19;4956728;29;20075;-81
2022/02/05 01:17:10;;;;;;;17.42;8.40;;;;;;;0.03;51.89;98608.84;4958606;28;20411;-82
2022/02/05 01:22:13;;;;;;;17.70;9.38;;;;;;;0.14;51.55;98592.56;4956246;29;20039;-81
2022/02/05 01:24:40;;;;;;;18.25;8.93;;;;;;;0.13;51.53;98594.34;4954600;28;20051;-82
2022/02/05 01:27:12;;;;;;;18.27;8.52;;;;;;;0.09;51.82;98586.69;4937853;29;20059;-83
2022/02/05 01:32:26;;;;;;;16.88;8.30;;;;;;;0.07;51.59;98586.75;4924153;29;20094;-82
2022/02/05 01:35:20;;;;;;;16.02;8.25;;;;;;;0.06;51.73;98587.69;4939555;28;20105;-83
2022/02/05 01:54:16;;;;;;;21.05;9.38;;;;;;;-0.01;51.44;98581.03;4938112;29;20427;-82
2022/02/05 02:09:31;;;;;;;21.70;9.68;;;;;;;0.01;51.45;98558.16;4973304;28;20047;-82
2022/02/05 02:12:26;;;;;;;18.13;9.23;;;;;;;0.00;51.05;98561.72;4940477;29;20057;-83
2022/02/05 02:22:21;;;;;;;20.38;9.98;;;;;;;0.05;50.96;98554.47;4963600;28;20054;-82
2022/02/05 02:28:08;;;;;;;19.45;9.98;;;;;;;-0.09;51.41;98547.25;4969081;28;20059;-83
2022/02/05 02:32:40;;;;;;;19.65;10.60;;;;;;;-0.20;51.43;98544.31;4951647;28;20525;-83
2022/02/05 02:35:12;;;;;;;18.98;9.68;;;;;;;-0.21;51.45;98542.59;4944870;29;20054;-81
2022/02/05 02:37:52;;;;;;;21.63;10.15;;;;;;;-0.18;51.33;98541.63;4968657;29;20047;-81
2022/02/05 02:42:57;;;;;;;19.38;10.50;;;;;;;-0.27;51.21;98530.59;4931676;29;20071;-81
2022/02/05 02:45:23;;;;;;;21.20;9.18;;;;;;;-0.29;51.43;98532.47;4961004;28;20039;-83
2022/02/05 02:47:49;;;;;;;24.60;10.52;;;;;;;-0.41;51.32;98533.09;4956815;28;20427;-83
2022/02/05 02:58:23;;;;;;;22.50;10.65;;;;;;;-0.53;52.00;98538.91;4975749;28;20050;-81
2022/02/05 03:00:54;;;;;;;20.67;10.35;;;;;;;-0.54;52.01;98534.59;4975336;28;20074;-81
2022/02/05 03:03:20;;;;;;;21.45;10.98;;;;;;;-0.58;52.02;98533.03;4960185;28;20061;-79
2022/02/05 03:05:46;;;;;;;23.38;11.00;;;;;;;-0.72;52.09;98538.94;4959422;28;20129;-84
2022/02/05 03:08:12;;;;;;;21.25;12.80;;;;;;;-0.73;51.99;98534.59;4943161;28;20059;-80
2022/02/05 03:10:38;;;;;;;21.27;11.23;;;;;;;-0.71;52.12;98534.53;4974919;28;20053;-84
2022/02/05 03:13:04;;;;;;;31.23;12.93;;;;;;;-0.67;52.32;98536.09;4976193;28;20142;-81
2022/02/05 03:15:38;;;;;;;23.50;11.95;;;;;;;-0.76;52.37;98535.59;4976158;28;20070;-80
2022/02/05 03:18:06;;;;;;;19.38;11.18;;;;;;;-0.87;52.66;98532.63;4975403;28;20055;-78
2022/02/05 03:20:32;;;;;;;23.50;11.93;;;;;;;-0.87;52.72;98527.38;4942544;28;20050;-80
2022/02/05 03:23:00;;;;;;;32.45;12.15;;;;;;;-0.79;53.07;98543.63;4974318;28;20129;-78
2022/02/05 03:25:28;;;;;;;28.27;12.57;;;;;;;-0.86;52.65;98531.72;4958958;28;20049;-78
2022/02/05 03:27:54;;;;;;;21.08;11.32;;;;;;;-0.88;52.79;98533.56;4974588;28;20047;-78
2022/02/05 03:30:20;;;;;;;30.10;12.73;;;;;;;-0.80;52.45;98539.28;4974338;28;20069;-79
2022/02/05 03:32:47;;;;;;;27.42;12.48;;;;;;;-0.75;52.93;98547.81;4958167;28;20043;-77
2022/02/05 03:35:13;;;;;;;28.05;12.13;;;;;;;-0.77;53.05;98538.31;4942376;28;20038;-77
2022/02/05 03:37:39;;;;;;;27.65;12.52;;;;;;;-0.74;53.46;98548.66;4942041;28;20082;-77
2022/02/05 03:40:05;;;;;;;31.05;13.38;;;;;;;-0.71;53.47;98552.91;4958148;28;20043;-76
2022/02/05 03:42:32;;;;;;;27.98;13.65;;;;;;;-0.71;53.33;98556.41;4974645;28;20474;-78
2022/02/05 03:44:58;;;;;;;29.67;13.32;;;;;;;-0.74;53.11;98551.28;4974566;28;20046;-78
2022/02/05 03:47:30;;;;;;;31.15;13.98;;;;;;;-0.76;53.20;98555.75;4974484;28;20396;-80
2022/02/05 03:49:56;;;;;;;39.58;13.32;;;;;;;-0.80;53.62;98552.41;4942579;28;20046;-78
2022/02/05 03:52:22;;;;;;;26.40;13.18;;;;;;;-0.82;53.56;98551.66;4958542;28;20049;-80
2022/02/05 03:54:47;;;;;;;32.55;14.35;;;;;;;-0.86;53.65;98557.97;4974202;28;20046;-78
2022/02/05 03:57:14;;;;;;;27.45;13.90;;;;;;;-0.80;53.61;98555.03;4974225;28;20050;-79
2022/02/05 03:59:40;;;;;;;26.55;14.15;;;;;;;-0.77;53.83;98565.38;4974620;28;20042;-86
2022/02/05 04:02:06;;;;;;;29.42;13.65;;;;;;;-0.79;53.74;98563.75;4973883;28;20046;-77
2022/02/05 04:04:32;;;;;;;31.23;14.38;;;;;;;-0.82;53.68;98554.28;4975766;28;20065;-79
2022/02/05 04:06:58;;;;;;;30.10;14.55;;;;;;;-0.87;53.77;98555.38;4973757;28;20050;-79
2022/02/05 04:09:30;;;;;;;36.75;13.63;;;;;;;-0.82;53.69;98551.66;4973657;28;20109;-81
2022/02/05 04:17:06;;;;;;;35.53;14.45;;;;;;;-0.80;53.50;98547.16;4965808;28;20047;-82
2022/02/05 04:19:32;;;;;;;35.40;14.27;;;;;;;-0.69;53.23;98551.06;4953923;28;20050;-83
2022/02/05 04:21:58;;;;;;;34.10;13.63;;;;;;;-0.60;53.35;98545.38;4972991;28;20133;-81
2022/02/05 04:24:25;;;;;;;30.50;13.35;;;;;;;-0.59;53.25;98547.09;4922993;29;20051;-84
2022/02/05 04:26:51;;;;;;;29.60;14.13;;;;;;;-0.54;52.98;98545.94;4891219;29;20059;-82
2022/02/05 04:29:17;;;;;;;32.03;13.68;;;;;;;-0.48;52.93;98549.22;4970044;28;20047;-76
2022/02/05 04:31:43;;;;;;;25.48;13.38;;;;;;;-0.50;53.25;98542.22;4960977;28;20057;-80
2022/02/05 04:34:09;;;;;;;30.88;14.90;;;;;;;-0.47;53.21;98528.13;4957441;28;20395;-80
2022/02/05 04:36:37;;;;;;;37.20;13.25;;;;;;;-0.51;53.05;98513.44;4957322;28;20058;-79
2022/02/05 04:39:09;;;;;;;34.78;14.35;;;;;;;-0.40;52.85;98537.41;4973230;28;20074;-80
2022/02/05 04:44:42;;;;;;;43.15;15.02;;;;;;;-0.30;52.77;98537.78;4949674;28;20054;-84
2022/02/05 04:57:33;;;;;;;28.97;14.17;;;;;;;-0.16;52.30;98529.25;4956948;28;20096;-77
2022/02/05 05:05:15;;;;;;;37.67;14.30;;;;;;;0.05;52.35;98541.31;4950445;28;20049;-84
2022/02/05 05:10:39;;;;;;;30.95;15.35;;;;;;;0.22;51.81;98529.94;4959116;28;20043;-83
2022/02/05 05:13:15;;;;;;;29.67;13.88;;;;;;;0.37;51.57;98531.78;4972355;28;20055;-80
2022/02/05 05:21:10;;;;;;;30.30;14.70;;;;;;;0.64;50.79;98532.16;4972647;28;20499;-79
2022/02/05 05:23:36;;;;;;;32.17;15.70;;;;;;;0.73;50.83;98536.91;4972366;28;20446;-79
2022/02/05 05:26:03;;;;;;;31.92;15.20;;;;;;;0.82;50.96;98532.09;4955044;28;20047;-80
2022/02/05 05:28:28;;;;;;;36.22;15.40;;;;;;;0.95;50.40;98527.88;4973701;28;20042;-83
2022/02/05 05:30:54;;;;;;;36.75;16.30;;;;;;;1.05;49.82;98539.59;4974923;28;20051;-82
2022/02/05 05:33:20;;;;;;;32.22;14.93;;;;;;;1.17;49.85;98538.94;4977505;28;20078;-83
2022/02/05 05:35:46;;;;;;;34.40;15.50;;;;;;;1.28;49.51;98545.38;4976417;28;20509;-83
2022/02/05 05:38:12;;;;;;;31.77;14.90;;;;;;;1.39;49.48;98543.00;4912634;28;20541;-80
2022/02/05 05:40:41;;;;;;;29.25;14.95;;;;;;;1.50;49.11;98545.03;4993938;28;20039;-85
2022/02/05 05:43:18;;;;;;;28.85;13.73;;;;;;;1.60;48.88;98531.28;4977316;28;20046;-80
2022/02/05 05:48:41;;;;;;;40.70;14.93;;;;;;;1.80;48.58;98534.56;4946812;28;20043;-82
2022/02/05 05:51:08;;;;;;;35.35;14.82;;;;;;;1.97;48.55;98538.88;4961166;28;20053;-81
2022/02/05 05:53:34;;;;;;;30.95;15.20;;;;;;;2.12;48.29;98535.34;4944001;28;20057;-85
2022/02/05 05:56:02;;;;;;;27.05;14.23;;;;;;;2.10;48.87;98538.06;4942694;28;20050;-80
2022/02/05 05:58:28;;;;;;;33.28;16.08;;;;;;;2.16;47.93;98527.16;4958068;28;20051;-82
2022/02/05 06:00:55;;;;;;;31.58;15.05;;;;;;;2.33;47.38;98520.03;4957885;28;20071;-83
2022/02/05 06:03:21;;;;;;;30.98;14.55;;;;;;;2.38;46.91;98528.53;4895185;29;20047;-82
2022/02/05 06:05:47;;;;;;;29.42;15.27;;;;;;;2.47;47.11;98514.78;4910954;29;20098;-82
2022/02/05 06:08:14;;;;;;;32.20;15.07;;;;;;;2.79;46.96;98519.91;4924768;29;20074;-82
2022/02/05 06:10:40;;;;;;;35.40;14.82;;;;;;;2.97;45.72;98518.78;4957309;28;20119;-81
2022/02/05 06:13:07;;;;;;;29.33;15.38;;;;;;;3.16;45.74;98519.31;4969646;29;20047;-80
2022/02/05 06:15:33;;;;;;;32.72;15.55;;;;;;;3.40;45.49;98521.34;4935107;28;20038;-83
2022/02/05 06:17:59;;;;;;;27.48;14.63;;;;;;;3.63;45.04;98522.50;4960379;28;20490;-88
2022/02/05 06:20:25;;;;;;;28.27;14.13;;;;;;;3.91;44.23;98521.53;4959775;28;20050;-85
2022/02/05 06:22:51;;;;;;;27.48;14.32;;;;;;;3.89;43.54;98518.16;4976798;28;20082;-83
2022/02/05 06:25:17;;;;;;;27.30;14.65;;;;;;;4.07;43.13;98514.28;4943807;28;20042;-80
2022/02/05 06:27:43;;;;;;;29.80;13.80;;;;;;;4.17;42.60;98516.31;4975518;28;20468;-81
2022/02/05 06:30:09;;;;;;;27.60;13.30;;;;;;;4.25;43.03;98504.28;4958846;28;20050;-81
2022/02/05 06:32:35;;;;;;;26.77;13.77;;;;;;;4.20;42.71;98510.81;4974336;28;20190;-81
2022/02/05 06:35:01;;;;;;;28.75;15.05;;;;;;;4.38;42.51;98520.16;4976486;28;20094;-80
2022/02/05 06:37:28;;;;;;;30.13;14.80;;;;;;;4.59;42.50;98528.44;4975992;28;20100;-80
2022/02/05 06:39:54;;;;;;;25.77;13.15;;;;;;;4.70;42.12;98530.31;4959998;28;20054;-84
2022/02/05 06:42:20;;;;;;;26.98;13.98;;;;;;;4.75;41.73;98528.22;4957719;28;20050;-86
2022/02/05 06:44:47;;;;;;;29.83;13.88;;;;;;;4.84;41.42;98525.78;4975398;28;20085;-86
2022/02/05 06:47:13;;;;;;;24.08;12.40;;;;;;;4.88;40.65;98523.75;4974579;28;20133;-88
2022/02/05 06:49:39;;;;;;;26.40;12.70;;;;;;;4.94;41.11;98523.34;4943318;28;20141;-86
2022/02/05 06:52:07;;;;;;;26.17;12.73;;;;;;;4.84;40.69;98535.50;4959116;28;20054;-85
2022/02/05 06:54:32;;;;;;;24.15;12.45;;;;;;;4.58;41.04;98522.28;4975419;28;20133;-79
2022/02/05 06:56:58;;;;;;;23.05;11.77;;;;;;;4.56;41.19;98523.34;4975492;28;20149;-81
2022/02/05 06:59:25;;;;;;;30.80;13.65;;;;;;;4.82;40.74;98518.91;4942824;28;20042;-79
2022/02/05 07:01:51;;;;;;;25.55;12.38;;;;;;;4.83;40.79;98521.44;4941959;28;20045;-82
2022/02/05 07:04:17;;;;;;;25.58;12.95;;;;;;;5.13;41.07;98527.34;4974876;28;20050;-86
2022/02/05 07:06:45;;;;;;;23.40;11.82;;;;;;;5.34;40.50;98520.50;4974380;28;20054;-82
2022/02/05 07:09:11;;;;;;;24.02;13.10;;;;;;;5.50;39.82;98521.09;4974265;28;20525;-83
2022/02/05 07:11:37;;;;;;;26.70;13.10;;;;;;;5.40;40.38;98516.56;4958540;28;20046;-82
2022/02/05 07:14:05;;;;;;;36.08;19.35;;;;;;;5.42;40.48;98512.03;4974565;28;20513;-79
2022/02/05 07:16:37;;;;;;;24.38;12.70;;;;;;;5.70;39.81;98508.19;4974903;28;20042;-82
2022/02/05 07:20:10;;;;;;;28.02;12.85;;;;;;;5.66;39.76;98498.78;4960201;28;20053;-87
2022/02/05 07:21:58;;;;;;;29.02;11.70;;;;;;;5.41;39.68;98505.84;4949729;28;20417;-82
2022/02/05 07:24:47;;;;;;;26.88;12.45;;;;;;;5.52;39.79;98492.66;4975642;28;20054;-85
2022/02/05 07:29:58;;;;;;;21.15;12.02;;;;;;;5.66;39.54;98485.53;4977272;28;20345;-88
2022/02/05 07:32:24;;;;;;;23.45;12.25;;;;;;;5.81;39.18;98481.72;4945766;28;20050;-84
2022/02/05 07:34:50;;;;;;;24.17;11.93;;;;;;;5.85;39.15;98492.00;4984149;28;20430;-83
2022/02/05 07:37:17;;;;;;;26.75;12.75;;;;;;;5.63;39.60;98485.75;4995141;28;20050;-92
2022/02/05 07:39:47;;;;;;;30.48;13.90;;;;;;;5.55;39.55;98476.53;4943329;28;20410;-86
2022/02/05 07:42:14;;;;;;;25.08;12.10;;;;;;;5.42;39.27;98480.22;4981104;28;20035;-84
2022/02/05 07:44:41;;;;;;;28.08;12.75;;;;;;;5.45;39.33;98472.84;4984064;28;20059;-91
2022/02/05 07:47:07;;;;;;;25.33;13.85;;;;;;;5.54;39.46;98460.75;5015465;23;20059;-89
2022/02/05 07:49:43;;;;;;;54.70;14.77;;;;;;;5.65;39.66;98465.28;5006828;28;20060;-90
2022/02/05 07:52:10;;;;;;;24.70;11.85;;;;;;;6.00;39.34;98476.78;4986654;28;20045;-91
2022/02/05 07:54:37;;;;;;;29.67;14.13;;;;;;;6.07;38.57;98482.47;5002041;28;20045;-91
2022/02/05 07:57:03;;;;;;;32.63;13.93;;;;;;;5.91;37.60;98472.13;5021595;28;20041;-88
2022/02/05 07:59:29;;;;;;;28.08;12.73;;;;;;;5.88;38.08;98459.09;5038211;28;20050;-91
2022/02/05 08:01:56;;;;;;;28.85;13.23;;;;;;;5.77;38.51;98443.16;4973251;28;20085;-91
2022/02/05 08:04:22;;;;;;;35.03;15.68;;;;;;;6.37;38.07;98462.53;4978341;28;20409;-86
2022/02/05 08:06:50;;;;;;;36.67;15.88;;;;;;;6.83;37.67;98486.34;4954312;28;20129;-88
2022/02/05 08:09:22;;;;;;;40.38;16.98;;;;;;;7.08;37.24;98473.78;4925821;28;20046;-87
2022/02/05 08:12:05;;;;;;;29.65;14.85;;;;;;;6.99;36.45;98470.88;4943279;28;20504;-90
2022/02/05 08:14:35;;;;;;;28.42;15.13;;;;;;;7.42;36.80;98470.13;4913865;28;20105;-87
2022/02/05 08:17:05;;;;;;;29.75;15.35;;;;;;;7.62;35.53;98472.97;4941146;28;20150;-86
2022/02/05 08:19:31;;;;;;;36.03;15.05;;;;;;;7.83;34.82;98475.69;4942424;28;20054;-87
2022/02/05 08:21:56;;;;;;;29.35;15.02;;;;;;;7.84;34.42;98478.22;4943767;28;20058;-90
2022/02/05 08:24:23;;;;;;;28.10;14.82;;;;;;;7.92;34.36;98481.06;4941695;28;20043;-89
2022/02/05 08:26:49;;;;;;;30.08;13.98;;;;;;;7.87;33.91;98477.97;4944598;28;20149;-89
2022/02/05 08:29:18;;;;;;;33.92;14.85;;;;;;;7.90;34.18;98469.72;4928388;28;20039;-91
2022/02/05 08:31:44;;;;;;;28.67;14.45;;;;;;;7.65;33.80;98464.75;4959547;28;20414;-91
2022/02/05 08:34:10;;;;;;;29.90;15.70;;;;;;;7.35;34.73;98466.25;4958588;28;20553;-90
2022/02/05 08:36:46;;;;;;;37.63;15.15;;;;;;;7.30;35.16;98463.13;4943152;28;20046;-94
2022/02/05 08:39:13;;;;;;;28.58;14.52;;;;;;;7.49;35.38;98465.16;4950431;28;20540;-91
2022/02/05 08:41:40;;;;;;;31.25;18.85;;;;;;;7.59;34.82;98459.91;4977550;28;20076;-89
2022/02/05 08:44:06;;;;;;;31.30;17.35;;;;;;;7.72;34.30;98463.25;4929450;28;20043;-90
2022/02/05 08:46:32;;;;;;;32.22;18.15;;;;;;;7.77;34.95;98461.06;4963367;28;20469;-88
2022/02/05 08:48:59;;;;;;;31.58;16.50;;;;;;;7.83;34.71;98455.25;4930451;28;20078;-91
2022/02/05 08:51:25;;;;;;;31.48;16.98;;;;;;;7.90;33.84;98456.44;4985935;28;20057;-91
2022/02/05 08:53:51;;;;;;;34.55;17.35;;;;;;;7.85;34.81;98458.59;4973488;28;20060;-92
2022/02/05 08:56:17;;;;;;;34.45;17.67;;;;;;;7.70;35.03;98459.88;5002644;28;20038;-93
2022/02/05 08:58:43;;;;;;;30.73;15.80;;;;;;;7.66;34.44;98453.97;4952697;28;20046;-92
2022/02/05 09:01:17;;;;;;;26.85;15.32;;;;;;;7.39;34.49;98451.75;5006459;28;20129;-87
2022/02/05 09:06:15;;;;;;;38.03;19.38;;;;;;;6.83;35.88;98451.81;4986056;28;20044;-82
2022/02/05 09:08:50;;;;;;;32.92;18.55;;;;;;;6.89;36.08;98448.69;4982028;28;20042;-90
2022/02/05 09:11:31;;;;;;;39.42;22.20;;;;;;;6.68;36.57;98447.72;4973160;28;20084;-92
2022/02/05 09:16:42;;;;;;;36.30;18.70;;;;;;;7.03;35.73;98451.09;4993554;28;20506;-85
2022/02/05 09:19:08;;;;;;;38.47;22.00;;;;;;;7.26;35.44;98451.06;4982514;28;20033;-89
2022/02/05 09:21:35;;;;;;;37.42;18.90;;;;;;;7.50;35.30;98450.88;4996876;28;20058;-88
2022/02/05 09:24:03;;;;;;;33.17;17.33;;;;;;;7.52;34.83;98451.56;5000485;28;20045;-92
2022/02/05 09:26:31;;;;;;;33.33;17.48;;;;;;;7.55;34.74;98452.19;5017790;28;20041;-90
2022/02/05 09:29:03;;;;;;;33.50;18.92;;;;;;;7.58;34.80;98451.09;4957382;28;20065;-90
2022/02/05 09:31:34;;;;;;;32.90;17.63;;;;;;;7.71;34.68;98461.56;4988289;28;20054;-91
2022/02/05 09:34:00;;;;;;;31.05;17.05;;;;;;;7.79;35.13;98435.19;4989358;28;20053;-90
2022/02/05 09:36:26;;;;;;;33.97;16.92;;;;;;;7.81;34.79;98454.50;4986376;28;20121;-89
2022/02/05 09:38:56;;;;;;;36.53;15.45;;;;;;;7.88;34.20;98444.22;4970422;28;20501;-90
2022/02/05 09:41:22;;;;;;;27.20;16.23;;;;;;;8.03;34.27;98457.06;4969767;28;20049;-91
2022/02/05 09:43:49;;;;;;;29.70;15.07;;;;;;;8.26;33.94;98438.31;4967424;28;20033;-90
2022/02/05 09:46:15;;;;;;;30.48;15.98;;;;;;;8.26;34.29;98451.63;5001848;28;20077;-89
2022/02/05 09:48:44;;;;;;;30.35;17.00;;;;;;;8.07;34.62;98446.19;4978060;28;20077;-89
2022/02/05 09:51:16;;;;;;;27.30;14.88;;;;;;;7.90;34.54;98435.13;4974513;28;20054;-88
2022/02/05 09:53:47;;;;;;;26.42;14.68;;;;;;;7.80;34.80;98434.22;4963067;28;20098;-90
2022/02/05 09:56:13;;;;;;;25.88;13.25;;;;;;;7.70;34.81;98441.25;4966500;28;20047;-89
2022/02/05 09:58:39;;;;;;;31.58;14.32;;;;;;;7.58;35.09;98442.28;4948296;28;20050;-90
2022/02/05 10:01:11;;;;;;;29.60;14.80;;;;;;;7.33;35.47;98440.75;4957888;28;20114;-85
2022/02/05 10:03:39;;;;;;;27.02;14.55;;;;;;;7.35;35.46;98438.84;4943757;28;20074;-84
2022/02/05 10:06:13;;;;;;;26.77;14.57;;;;;;;7.22;36.03;98439.84;4941512;28;20050;-86
2022/02/05 10:08:47;;;;;;;27.20;13.90;;;;;;;6.95;36.11;98437.56;4941347;28;20049;-86
2022/02/05 10:11:13;;;;;;;29.20;16.75;;;;;;;6.97;35.83;98437.44;4940979;28;20046;-88
2022/02/05 10:13:41;;;;;;;32.55;18.45;;;;;;;6.83;35.67;98430.56;4940906;28;20063;-89
2022/02/05 10:16:08;;;;;;;41.28;20.58;;;;;;;6.83;35.83;98430.56;4990557;28;20438;-87
2022/02/05 10:18:39;;;;;;;44.95;24.33;;;;;;;6.78;35.97;98430.09;4944623;28;20050;-87
2022/02/05 10:21:19;;;;;;;49.72;23.98;;;;;;;6.64;36.37;98422.38;4960744;28;20049;-87
2022/02/05 10:24:15;;;;;;;38.85;20.48;;;;;;;6.52;36.38;98417.03;4978771;28;20050;-87
2022/02/05 10:26:44;;;;;;;37.17;19.38;;;;;;;6.35;36.70;98416.66;4960507;28;20395;-85
2022/02/05 10:29:11;;;;;;;33.80;18.15;;;;;;;6.36;37.39;98432.50;4977238;28;20059;-87
2022/02/05 10:32:00;;;;;;;42.22;20.52;;;;;;;6.24;37.38;98426.31;4944974;28;20057;-87
2022/02/05 10:34:28;;;;;;;72.25;37.63;;;;;;;6.17;37.40;98433.06;4945401;28;20495;-88
2022/02/05 10:37:12;;;;;;;48.17;23.00;;;;;;;6.03;37.35;98434.09;4968536;28;20042;-87
2022/02/05 10:40:22;;;;;;;40.40;21.45;;;;;;;5.68;38.15;98425.25;4965435;28;20045;-89
2022/02/05 10:45:14;;;;;;;35.60;18.38;;;;;;;5.21;38.46;98430.47;4982535;28;20038;-87
2022/02/05 10:47:53;;;;;;;29.23;15.88;;;;;;;5.17;38.81;98433.44;4981703;28;20066;-87
2022/02/05 10:50:21;;;;;;;;;;;;;;;4.73;39.57;98434.81;4982767;28;20050;-85
2022/02/05 10:52:58;;;;;;;30.95;16.52;;;;;;;4.86;39.65;98436.50;4964515;28;19988;-86
2022/02/05 10:59:13;;;;;;;34.92;17.27;;;;;;;4.91;39.69;98432.66;4970069;28;20046;-86
2022/02/05 11:07:17;;;;;;;39.78;20.27;;;;;;;5.19;40.79;98431.50;4980773;28;20061;-88
2022/02/05 11:09:44;;;;;;;;;;;;;;;5.22;40.42;98433.94;4981559;28;20046;-85
2022/02/05 11:20:00;;;;;;;48.75;21.58;;;;;;;5.06;40.49;98435.06;4948701;28;20290;-91
2022/02/05 11:22:31;;;;;;;51.47;23.20;;;;;;;5.07;40.46;98423.50;4964496;28;20049;-90
2022/02/05 11:24:57;;;;;;;60.35;25.08;;;;;;;4.82;41.06;98419.13;4997526;28;20494;-89
2022/02/05 11:27:23;;;;;;;34.72;18.15;;;;;;;4.43;41.94;98432.50;4951741;28;20086;-89
2022/02/05 11:29:49;;;;;;;50.70;20.38;;;;;;;4.20;42.12;98442.88;5000571;28;20057;-89
2022/02/05 11:32:29;;;;;;;41.20;19.35;;;;;;;4.11;42.53;98435.59;4989316;28;20057;-87
2022/02/05 11:35:06;;;;;;;40.45;17.75;;;;;;;3.98;42.96;98432.91;4962217;28;20038;-87
2022/02/05 11:38:12;;;;;;;35.03;17.60;;;;;;;3.92;42.64;98428.06;5001356;28;20053;-85
2022/02/05 11:40:41;;;;;;;30.77;18.02;;;;;;;3.75;42.78;98430.97;4977513;28;20071;-86
2022/02/05 11:43:27;;;;;;;39.63;17.63;;;;;;;3.87;42.42;98435.44;5011143;28;20043;-88
2022/02/05 11:46:18;;;;;;;36.70;18.40;;;;;;;3.97;42.23;98430.38;4949640;28;20149;-87
2022/02/05 11:48:45;;;;;;;40.55;17.83;;;;;;;4.04;42.50;98431.66;4979238;28;20058;-87
2022/02/05 11:51:20;;;;;;;35.97;16.30;;;;;;;3.91;42.51;98431.63;4976471;28;20458;-87
2022/02/05 11:54:04;;;;;;;34.72;17.45;;;;;;;3.84;43.19;98439.16;4955137;29;20113;-85
2022/02/05 11:56:34;;;;;;;32.03;16.10;;;;;;;3.88;43.63;98430.06;4923714;29;20454;-82
2022/02/05 11:59:00;;;;;;;39.97;18.30;;;;;;;3.62;44.01;98429.16;4938550;28;20063;-86
2022/02/05 12:01:37;;;;;;;45.13;18.42;;;;;;;3.49;45.61;98436.19;4906888;29;20047;-81
2022/02/05 12:04:15;;;;;;;31.95;16.60;;;;;;;3.27;45.02;98426.19;4939497;29;20122;-83
2022/02/05 12:06:58;;;;;;;38.97;17.30;;;;;;;3.15;45.70;98426.97;4922590;29;20204;-87
2022/02/05 12:09:42;;;;;;;32.22;17.48;;;;;;;2.86;45.97;98427.06;4924169;29;20047;-83
2022/02/05 12:12:24;;;;;;;37.45;20.20;;;;;;;1.97;47.17;98413.22;4922464;29;20620;-88
2022/02/05 12:15:08;;;;;;;38.85;17.42;;;;;;;1.54;48.38;98414.88;4959820;29;20054;-86
2022/02/05 12:18:05;;;;;;;38.95;19.92;;;;;;;1.52;47.71;98409.72;4975174;28;20047;-91
2022/02/05 12:20:49;;;;;;;42.90;20.75;;;;;;;1.24;48.25;98414.84;4923386;29;20526;-82
2022/02/05 12:25:57;;;;;;;54.03;22.02;;;;;;;1.12;48.92;98421.66;4955063;29;20058;-89
2022/02/05 12:28:29;;;;;;;49.20;21.30;;;;;;;0.96;49.97;98416.41;4937587;29;20058;-82
2022/02/05 12:31:02;;;;;;;48.28;22.77;;;;;;;0.63;49.72;98413.84;4956628;28;20061;-85
2022/02/05 12:33:48;;;;;;;47.38;23.50;;;;;;;0.61;50.05;98413.97;4961091;28;20516;-84
2022/02/05 12:36:25;;;;;;;50.95;22.58;;;;;;;0.46;50.63;98402.50;4975884;28;20140;-85
2022/02/05 12:38:52;;;;;;;45.25;23.30;;;;;;;0.42;50.40;98390.44;4962344;28;20116;-83
2022/02/05 12:41:18;;;;;;;45.10;20.95;;;;;;;0.43;50.58;98404.44;4976676;28;20387;-83
2022/02/05 12:43:50;;;;;;;40.35;21.30;;;;;;;0.43;50.03;98397.38;4977686;28;20137;-83
2022/02/05 12:46:18;;;;;;;41.55;21.15;;;;;;;0.40;50.85;98396.72;4980765;28;20501;-82
2022/02/05 12:48:46;;;;;;;39.97;20.13;;;;;;;0.29;50.85;98399.91;4954314;28;20055;-84
2022/02/05 12:51:12;;;;;;;43.93;19.37;;;;;;;0.16;50.85;98399.72;4985781;28;20057;-84
2022/02/05 12:53:40;;;;;;;34.78;18.10;;;;;;;0.11;50.45;98385.94;4948532;28;20039;-86
2022/02/05 12:56:18;;;;;;;33.75;17.13;;;;;;;0.14;50.32;98388.44;4957756;28;20057;-86
2022/02/05 12:59:02;;;;;;;47.95;18.40;;;;;;;0.19;50.70;98388.22;4974142;28;20102;-88
2022/02/05 13:01:32;;;;;;;37.00;19.00;;;;;;;0.03;50.88;98395.19;4943692;28;20517;-86
2022/02/05 13:04:21;;;;;;;46.22;19.58;;;;;;;-0.40;51.83;98385.13;4942152;28;20137;-86
2022/02/05 13:07:09;;;;;;;49.33;21.75;;;;;;;-0.60;52.57;98393.13;4973118;28;20438;-82
2022/02/05 13:09:46;;;;;;;34.47;16.75;;;;;;;-0.75;52.76;98385.13;4972634;28;20081;-84
2022/02/05 13:12:12;;;;;;;36.65;19.73;;;;;;;-0.87;53.40;98380.44;4960054;28;20046;-88
2022/02/05 13:14:50;;;;;;;39.25;19.25;;;;;;;-0.93;54.16;98395.66;4974982;28;20569;-83
2022/02/05 13:26:07;;;;;;;33.20;18.60;;;;;;;-0.55;53.25;98380.66;4973450;28;20053;-87
2022/02/05 13:28:52;;;;;;;41.13;18.25;;;;;;;-0.66;53.90;98383.81;4947395;28;20059;-86
2022/02/05 13:42:08;;;;;;;;;;;;;;;-0.61;53.73;98380.94;4998405;28;20698;-79
2022/02/05 13:44:59;;;;;;;55.10;22.60;;;;;;;-0.72;54.94;98376.22;4993971;28;19968;-91
2022/02/05 13:47:34;;;;;;;46.38;22.60;;;;;;;-0.85;55.97;98378.63;4976785;28;20118;-86
2022/02/05 13:50:21;;;;;;;53.42;24.25;;;;;;;-0.81;55.76;98379.31;4960435;28;20046;-85
2022/02/05 13:52:54;;;;;;;52.90;22.55;;;;;;;-0.84;56.45;98367.19;4963030;28;20038;-87
2022/02/05 13:55:34;;;;;;;41.83;20.60;;;;;;;-1.04;56.40;98364.72;4963927;28;20421;-92
2022/02/05 13:58:10;;;;;;;46.10;21.30;;;;;;;-0.77;56.08;98386.97;4980832;28;20576;-89
2022/02/05 14:00:46;;;;;;;44.47;21.65;;;;;;;-0.69;55.90;98362.97;5026398;28;20137;-88
2022/02/05 14:03:29;;;;;;;51.65;21.60;;;;;;;-0.56;55.28;98353.56;4999610;28;20052;-90
2022/02/05 14:06:08;;;;;;;44.45;20.92;;;;;;;-0.36;54.90;98376.16;4966242;28;20130;-90
2022/02/05 14:08:44;;;;;;;46.63;21.20;;;;;;;-0.36;54.75;98370.91;4963519;28;20053;-88
2022/02/05 14:11:25;;;;;;;39.42;20.50;;;;;;;-0.17;54.59;98390.97;4917646;28;20128;-89
2022/02/05 14:13:58;;;;;;;45.72;20.13;;;;;;;-0.19;54.38;98361.28;4963353;28;20042;-84
2022/02/05 14:16:39;;;;;;;37.17;20.33;;;;;;;0.08;54.39;98378.25;4960622;28;20050;-85
2022/02/05 14:19:12;;;;;;;51.20;21.73;;;;;;;0.24;54.34;98381.75;4947864;28;20046;-87
2022/02/05 14:21:48;;;;;;;42.13;22.10;;;;;;;0.29;54.14;98373.63;4947750;28;20057;-86
2022/02/05 14:24:34;;;;;;;44.42;23.33;;;;;;;0.23;54.12;98377.44;4963878;28;20461;-88
2022/02/05 14:27:19;;;;;;;50.30;22.15;;;;;;;0.32;54.08;98380.50;4964005;28;20056;-89
2022/02/05 14:29:58;;;;;;;49.10;21.35;;;;;;;0.42;54.14;98379.09;4915984;28;20142;-87
2022/02/05 14:32:50;;;;;;;52.92;22.73;;;;;;;0.39;53.92;98374.81;4962797;28;20057;-89